Terminal Aerodrome Forecast
Issued by NWS

Home | Current Version | Previous Version | Graphics & Text | Print | Product List | Glossary On
Versions: 1 2 3 4 5 6 7 8 9 10 11 12 13 14 15 16 17 18 19 20 21 22 23 24 25 26 27 28
000
FTUS43 KGRB 172336
TAFRHI
TAF
KRHI 172336Z 1800/1824 28008G14KT P6SM -SHRA SCT009 OVC017
      TEMPO 1800/1801 4SM -SHRA BR BKN008
     FM180200 29009G17KT 5SM BR VCSH OVC008
     FM180600 29009G16KT 3SM BR OVC004
     FM181400 31010G17KT P6SM BKN015
     FM181600 31010G17KT P6SM SCT025 BKN040=

USA.gov is the U.S. government's official web portal to all federal, state and local government web resources and services.